createdAt,value
2023-01-12T00:02:24.212Z,1.95
2023-01-12T00:04:52.308Z,1.48
2023-01-12T00:07:20.610Z,1.30
2023-01-12T00:09:48.706Z,1.60
2023-01-12T00:12:16.741Z,1.70
2023-01-12T00:14:44.775Z,1.55
2023-01-12T00:17:16.791Z,1.88
2023-01-12T00:19:46.250Z,1.90
2023-01-12T00:22:17.688Z,1.65
2023-01-12T00:24:48.078Z,1.73
2023-01-12T00:27:19.142Z,1.55
2023-01-12T00:29:47.285Z,1.60
2023-01-12T00:32:17.061Z,1.73
2023-01-12T00:34:46.468Z,1.52
2023-01-12T00:37:14.658Z,1.48
2023-01-12T00:40:00.903Z,1.65
2023-01-12T00:42:47.578Z,1.50
2023-01-12T00:45:25.349Z,1.30
2023-01-12T00:47:54.629Z,2.08
2023-01-12T00:50:24.372Z,1.77
2023-01-12T00:52:52.340Z,1.92
2023-01-12T00:55:20.309Z,1.98
2023-01-12T00:57:48.356Z,1.73
2023-01-12T01:00:19.884Z,1.90
2023-01-12T01:02:48.117Z,1.70
2023-01-12T01:05:17.714Z,1.70
2023-01-12T01:07:49.214Z,2.10
2023-01-12T01:10:18.052Z,1.77
2023-01-12T01:12:46.067Z,1.63
2023-01-12T01:15:16.120Z,1.90
2023-01-12T01:17:44.031Z,1.70
2023-01-12T01:20:13.214Z,2.25
2023-01-12T01:22:41.339Z,1.67
2023-01-12T01:25:11.384Z,2.10
2023-01-12T01:27:39.398Z,1.90
2023-01-12T01:30:08.739Z,2.00
2023-01-12T01:32:36.819Z,1.50
2023-01-12T01:35:05.221Z,2.05
2023-01-12T01:37:33.260Z,1.92
2023-01-12T01:40:01.289Z,2.00
2023-01-12T01:42:33.745Z,2.38
2023-01-12T01:45:03.997Z,1.75
2023-01-12T01:47:40.579Z,2.03
2023-01-12T01:50:17.756Z,1.70
2023-01-12T01:52:54.408Z,1.95
2023-01-12T01:55:26.094Z,1.98
2023-01-12T01:58:00.162Z,1.98
2023-01-12T02:00:28.672Z,2.25
2023-01-12T02:02:57.694Z,2.00
2023-01-12T02:05:27.703Z,1.58
2023-01-12T02:07:57.618Z,1.80
2023-01-12T02:10:25.679Z,1.92
2023-01-12T02:13:14.999Z,1.92
2023-01-12T02:16:20.753Z,1.83
2023-01-12T02:19:03.669Z,1.65
2023-01-12T02:22:01.989Z,1.85
2023-01-12T02:24:56.781Z,2.20
2023-01-12T02:28:03.091Z,1.58
2023-01-12T02:31:04.486Z,1.58
2023-01-12T02:33:45.980Z,1.50
2023-01-12T02:36:24.202Z,2.00
2023-01-12T02:38:58.725Z,1.70
2023-01-12T02:41:49.527Z,2.20
2023-01-12T02:44:29.145Z,2.25
2023-01-12T02:46:59.766Z,1.95
2023-01-12T02:49:36.782Z,1.35
2023-01-12T02:52:08.977Z,1.38
2023-01-12T02:57:09.377Z,1.55
2023-01-12T02:59:41.821Z,1.60
2023-01-12T03:04:41.971Z,2.05
2023-01-12T03:07:47.538Z,1.80
2023-01-12T03:10:32.036Z,2.00
2023-01-12T03:13:06.162Z,1.70
2023-01-12T03:15:35.125Z,1.55
2023-01-12T03:18:09.356Z,1.52
2023-01-12T03:20:44.921Z,1.70
2023-01-12T03:23:16.936Z,1.70
2023-01-12T03:25:46.194Z,1.40
2023-01-12T03:28:17.621Z,1.80
2023-01-12T03:30:50.055Z,1.90
2023-01-12T03:33:18.366Z,2.40
2023-01-12T03:35:55.499Z,1.88
2023-01-12T03:38:30.376Z,1.55
2023-01-12T03:41:04.283Z,1.50
2023-01-12T03:43:38.574Z,1.88
2023-01-12T03:46:13.955Z,1.50
2023-01-12T03:48:47.942Z,1.98
2023-01-12T03:51:21.476Z,1.45
2023-01-12T03:53:52.236Z,1.63
2023-01-12T03:56:22.655Z,1.65
2023-01-12T03:58:51.657Z,1.85
2023-01-12T04:01:19.866Z,1.63
2023-01-12T04:03:48.047Z,1.90
2023-01-12T04:06:17.473Z,1.90
2023-01-12T04:08:45.536Z,1.85
2023-01-12T04:11:33.564Z,1.85
2023-01-12T04:14:01.595Z,1.38
2023-01-12T04:16:29.640Z,1.85
2023-01-12T04:18:57.823Z,1.92
2023-01-12T04:21:56.020Z,1.60
2023-01-12T04:24:24.073Z,1.90
2023-01-12T04:26:52.083Z,1.50
2023-01-12T04:29:20.008Z,1.63
2023-01-12T04:31:48.073Z,1.50
2023-01-12T04:34:16.117Z,1.63
2023-01-12T04:36:45.516Z,1.52
2023-01-12T04:39:15.781Z,1.23
2023-01-12T04:41:43.854Z,1.83
2023-01-12T04:44:11.967Z,1.50
2023-01-12T04:46:40.762Z,1.73
2023-01-12T04:49:08.938Z,1.20
2023-01-12T04:51:36.941Z,1.67
2023-01-12T04:54:06.514Z,1.60
2023-01-12T04:56:34.574Z,1.65
2023-01-12T04:59:02.593Z,1.90
2023-01-12T05:01:31.388Z,1.85
2023-01-12T05:04:00.904Z,1.55
2023-01-12T05:06:29.667Z,1.48
2023-01-12T05:09:14.909Z,1.25
2023-01-12T05:11:44.243Z,1.58
2023-01-12T05:14:12.254Z,1.55
2023-01-12T05:16:40.345Z,1.52
2023-01-12T05:19:10.447Z,1.55
2023-01-12T05:21:38.392Z,1.50
2023-01-12T05:24:06.792Z,1.77
2023-01-12T05:26:34.749Z,1.05
2023-01-12T05:29:04.056Z,1.27
2023-01-12T05:31:32.061Z,1.50
2023-01-12T05:33:59.990Z,1.42
2023-01-12T05:36:28.044Z,1.60
2023-01-12T05:38:56.029Z,1.23
2023-01-12T05:41:24.063Z,1.20
2023-01-12T05:43:51.206Z,1.50
2023-01-12T05:46:22.506Z,1.63
2023-01-12T05:48:51.574Z,1.07
2023-01-12T05:51:19.895Z,1.40
2023-01-12T05:53:48.023Z,1.33
2023-01-12T05:56:19.544Z,1.33
2023-01-12T05:58:51.505Z,1.17
2023-01-12T06:01:22.128Z,1.85
2023-01-12T06:03:51.079Z,1.30
2023-01-12T06:06:19.859Z,1.30
2023-01-12T06:08:50.649Z,1.23
2023-01-12T06:14:06.676Z,1.10
2023-01-12T06:16:38.847Z,1.30
2023-01-12T06:21:35.702Z,1.38
2023-01-12T06:24:03.753Z,1.05
2023-01-12T06:26:31.766Z,0.88
2023-01-12T06:28:59.703Z,1.15
2023-01-12T06:31:27.804Z,0.90
2023-01-12T06:33:57.379Z,1.20
2023-01-12T06:36:25.494Z,1.20
2023-01-12T06:38:53.461Z,1.17
2023-01-12T06:41:38.659Z,1.00
2023-01-12T06:44:06.678Z,1.30
2023-01-12T06:46:37.280Z,1.38
2023-01-12T06:49:06.939Z,1.25
2023-01-12T06:51:35.222Z,1.20
2023-01-12T06:54:03.309Z,1.08
2023-01-12T06:56:31.668Z,1.20
2023-01-12T06:58:59.616Z,1.10
2023-01-12T07:01:27.850Z,1.20
2023-01-12T07:03:55.817Z,0.80
2023-01-12T07:06:25.250Z,1.27
2023-01-12T07:08:53.221Z,1.05
2023-01-12T07:11:21.349Z,1.00
2023-01-12T07:13:49.437Z,1.20
2023-01-12T07:16:17.537Z,0.95
2023-01-12T07:18:48.064Z,1.10
2023-01-12T07:21:16.852Z,0.93
2023-01-12T07:23:46.435Z,0.90
2023-01-12T07:26:14.601Z,1.00
2023-01-12T07:28:42.998Z,1.08
2023-01-12T07:31:11.023Z,1.45
2023-01-12T07:33:39.081Z,1.10
2023-01-12T07:36:07.727Z,1.42
2023-01-12T07:38:35.686Z,0.90
2023-01-12T07:41:27.821Z,1.48
2023-01-12T07:43:55.801Z,1.20
2023-01-12T07:46:25.676Z,1.13
2023-01-12T07:48:53.660Z,1.10
2023-01-12T07:51:21.651Z,0.90
2023-01-12T07:53:50.212Z,1.02
2023-01-12T07:56:21.384Z,0.80
2023-01-12T07:58:49.638Z,1.02
2023-01-12T08:01:18.245Z,1.13
2023-01-12T08:03:46.331Z,0.98
2023-01-12T08:06:14.371Z,1.15
2023-01-12T08:08:44.337Z,0.85
2023-01-12T08:11:12.978Z,0.98
2023-01-12T08:13:42.393Z,0.80
2023-01-12T08:16:15.947Z,0.95
2023-01-12T08:18:49.927Z,0.90
2023-01-12T08:21:21.933Z,1.02
2023-01-12T08:23:54.619Z,0.70
2023-01-12T08:26:27.458Z,0.80
2023-01-12T08:29:00.807Z,0.85
2023-01-12T08:31:28.911Z,0.80
2023-01-12T08:34:00.036Z,0.90
2023-01-12T08:36:31.453Z,1.00
2023-01-12T08:39:01.434Z,0.77
2023-01-12T08:41:37.480Z,0.50
2023-01-12T08:44:10.855Z,0.65
2023-01-12T08:46:40.815Z,0.70
2023-01-12T08:49:12.058Z,1.15
2023-01-12T08:51:45.492Z,0.52
2023-01-12T08:54:15.185Z,0.90
2023-01-12T08:56:43.265Z,0.65
2023-01-12T08:59:13.266Z,0.70
2023-01-12T09:01:41.774Z,0.60
2023-01-12T09:04:10.081Z,1.08
2023-01-12T09:06:40.856Z,1.17
2023-01-12T09:09:10.867Z,0.80
2023-01-12T09:11:40.255Z,0.50
2023-01-12T09:14:08.357Z,0.77
2023-01-12T09:16:40.086Z,0.90
2023-01-12T09:19:08.237Z,0.90
2023-01-12T09:21:38.334Z,0.90
2023-01-12T09:24:07.191Z,0.88
2023-01-12T09:26:39.387Z,0.75
2023-01-12T09:31:37.436Z,0.80
2023-01-12T09:34:06.819Z,0.75
2023-01-12T09:36:36.592Z,1.00
2023-01-12T09:39:06.061Z,0.55
2023-01-12T09:41:55.902Z,0.60
2023-01-12T09:44:44.994Z,0.60
2023-01-12T09:47:22.670Z,0.80
2023-01-12T09:50:08.066Z,0.73
2023-01-12T09:52:42.416Z,0.93
2023-01-12T09:55:16.215Z,0.93
2023-01-12T09:58:11.391Z,0.70
2023-01-12T10:00:39.443Z,0.63
2023-01-12T10:03:17.416Z,0.60
2023-01-12T10:05:50.073Z,0.63
2023-01-12T10:08:24.989Z,0.90
2023-01-12T10:11:07.513Z,0.82
2023-01-12T10:14:11.195Z,0.75
2023-01-12T10:16:51.599Z,1.35
2023-01-12T10:19:26.013Z,0.50
2023-01-12T10:21:55.815Z,0.60
2023-01-12T10:24:25.765Z,0.80
2023-01-12T10:27:01.780Z,0.82
2023-01-12T10:29:31.616Z,0.63
2023-01-12T10:31:59.684Z,0.50
2023-01-12T10:34:27.661Z,0.60
2023-01-12T10:37:08.917Z,0.65
2023-01-12T10:39:39.660Z,0.90
2023-01-12T10:42:39.789Z,1.00
2023-01-12T10:45:17.371Z,0.60
2023-01-12T10:47:46.995Z,0.63
2023-01-12T10:50:27.409Z,0.70
2023-01-12T10:53:01.432Z,0.47
2023-01-12T10:55:33.577Z,0.50
2023-01-12T10:58:01.963Z,0.70
2023-01-12T11:00:34.202Z,0.60
2023-01-12T11:03:02.257Z,0.55
2023-01-12T11:05:35.130Z,0.70
2023-01-12T11:08:04.928Z,0.70
2023-01-12T11:10:36.620Z,0.43
2023-01-12T11:13:08.927Z,0.38
2023-01-12T11:18:29.232Z,0.70
2023-01-12T11:21:02.422Z,0.40
2023-01-12T11:23:40.175Z,0.85
2023-01-12T11:26:18.464Z,0.82
2023-01-12T11:28:50.988Z,0.90
2023-01-12T11:31:25.826Z,0.52
2023-01-12T11:33:59.470Z,0.70
2023-01-12T11:36:32.832Z,0.57
2023-01-12T11:39:06.029Z,0.70
2023-01-12T11:41:40.514Z,0.60
2023-01-12T11:44:16.383Z,0.52
2023-01-12T11:46:48.899Z,0.75
2023-01-12T11:49:21.761Z,0.60
2023-01-12T11:51:52.206Z,0.80
2023-01-12T11:54:21.527Z,0.50
2023-01-12T11:57:23.459Z,0.30
2023-01-12T12:00:04.686Z,0.57
2023-01-12T12:02:37.148Z,0.50
2023-01-12T12:05:17.444Z,0.55
2023-01-12T12:08:00.428Z,0.70
2023-01-12T12:10:36.676Z,0.80
2023-01-12T12:13:27.411Z,0.88
2023-01-12T12:16:07.148Z,1.00
2023-01-12T12:18:51.225Z,0.63
2023-01-12T12:21:37.319Z,0.73
2023-01-12T12:24:19.650Z,0.75
2023-01-12T12:26:54.727Z,0.45
2023-01-12T12:29:36.910Z,0.88
2023-01-12T12:32:18.125Z,0.57
2023-01-12T12:35:02.394Z,0.65
2023-01-12T12:37:45.815Z,0.52
2023-01-12T12:40:24.586Z,0.95
2023-01-12T12:43:22.093Z,0.73
2023-01-12T12:45:54.007Z,0.68
2023-01-12T12:48:28.729Z,0.70
2023-01-12T12:51:03.789Z,0.50
2023-01-12T12:53:35.866Z,0.52
2023-01-12T12:56:06.934Z,0.80
2023-01-12T12:58:46.600Z,0.90
2023-01-12T13:01:56.377Z,0.52
2023-01-12T13:05:05.075Z,0.50
2023-01-12T13:07:37.648Z,0.70
2023-01-12T13:13:02.147Z,0.57
2023-01-12T13:15:37.746Z,0.50
2023-01-12T13:18:07.371Z,0.60
2023-01-12T13:21:02.043Z,0.75
2023-01-12T13:23:44.474Z,0.50
2023-01-12T13:29:42.441Z,0.40
2023-01-12T13:32:41.494Z,0.50
2023-01-12T13:35:44.550Z,0.40
2023-01-12T13:38:17.503Z,0.60
2023-01-12T13:40:55.508Z,0.55
2023-01-12T13:43:28.928Z,0.57
2023-01-12T13:46:00.810Z,0.43
2023-01-12T13:48:33.291Z,0.35
2023-01-12T13:51:06.007Z,0.50
2023-01-12T13:53:34.065Z,0.55
2023-01-12T13:56:04.004Z,0.40
2023-01-12T13:58:40.601Z,0.60
2023-01-12T14:01:18.939Z,0.30
2023-01-12T14:04:22.763Z,0.40
2023-01-12T14:07:03.869Z,0.57
2023-01-12T14:09:41.867Z,0.70
2023-01-12T14:12:46.243Z,0.57
2023-01-12T14:15:42.392Z,0.40
2023-01-12T14:18:12.970Z,0.50
2023-01-12T14:20:48.014Z,0.60
2023-01-12T14:23:22.535Z,0.60
2023-01-12T14:26:08.675Z,0.40
2023-01-12T14:28:37.837Z,0.50
2023-01-12T14:31:07.992Z,0.47
2023-01-12T14:33:38.830Z,0.35
2023-01-12T14:36:17.580Z,0.50
2023-01-12T14:38:46.192Z,0.75
2023-01-12T14:41:37.133Z,0.50
2023-01-12T14:44:23.307Z,0.55
2023-01-12T14:46:53.977Z,0.30
2023-01-12T14:49:28.800Z,0.30
2023-01-12T14:51:59.618Z,0.60
2023-01-12T14:54:29.353Z,0.50
2023-01-12T14:57:00.650Z,0.50
2023-01-12T14:59:30.972Z,0.28
2023-01-12T15:02:32.996Z,0.40
2023-01-12T15:05:04.063Z,0.52
2023-01-12T15:07:36.064Z,0.60
2023-01-12T15:12:54.295Z,0.38
2023-01-12T15:15:25.549Z,0.40
2023-01-12T15:18:25.573Z,0.32
2023-01-12T15:21:10.783Z,0.60
2023-01-12T15:23:57.526Z,0.30
2023-01-12T15:26:25.531Z,0.30
2023-01-12T15:28:53.533Z,0.40
2023-01-12T15:31:29.053Z,0.40
2023-01-12T15:33:57.949Z,0.50
2023-01-12T15:36:26.134Z,0.35
2023-01-12T15:38:55.591Z,0.40
2023-01-12T15:41:47.408Z,0.30
2023-01-12T15:44:17.340Z,0.30
2023-01-12T15:46:45.675Z,0.30
2023-01-12T15:49:15.178Z,0.55
2023-01-12T15:51:45.180Z,0.52
2023-01-12T15:54:15.043Z,0.50
2023-01-12T15:56:45.403Z,0.35
2023-01-12T15:59:13.424Z,0.60
2023-01-12T16:01:48.990Z,0.55
2023-01-12T16:07:06.407Z,0.50
2023-01-12T16:09:35.773Z,0.47
2023-01-12T16:12:03.805Z,0.50
2023-01-12T16:14:31.805Z,0.40
2023-01-12T16:16:59.844Z,0.60
2023-01-12T16:19:29.420Z,0.60
2023-01-12T16:21:57.687Z,0.50
2023-01-12T16:24:32.389Z,0.70
2023-01-12T16:27:02.303Z,0.57
2023-01-12T16:29:31.795Z,0.60
2023-01-12T16:31:59.779Z,1.23
2023-01-12T16:34:27.810Z,1.00
2023-01-12T16:36:55.920Z,1.00
2023-01-12T16:39:24.910Z,0.85
2023-01-12T16:42:03.248Z,1.42
2023-01-12T16:44:37.325Z,2.05
2023-01-12T16:47:05.698Z,3.15
2023-01-12T16:49:36.375Z,3.28
2023-01-12T16:52:04.880Z,2.78
2023-01-12T16:54:33.424Z,3.08
2023-01-12T16:57:01.586Z,2.80
2023-01-12T16:59:29.566Z,2.30
2023-01-12T17:01:59.193Z,2.65
2023-01-12T17:04:30.732Z,2.30
2023-01-12T17:06:58.891Z,2.22
2023-01-12T17:09:26.989Z,2.05
2023-01-12T17:11:55.872Z,2.10
2023-01-12T17:14:24.478Z,2.28
2023-01-12T17:16:54.103Z,2.38
2023-01-12T17:19:24.916Z,2.10
2023-01-12T17:21:55.006Z,1.90
2023-01-12T17:24:23.743Z,1.83
2023-01-12T17:26:54.271Z,1.67
2023-01-12T17:29:23.284Z,1.95
2023-01-12T17:31:51.434Z,1.83
2023-01-12T17:34:19.613Z,1.60
2023-01-12T17:36:49.134Z,1.45
2023-01-12T17:39:17.200Z,2.00
2023-01-12T17:42:02.654Z,1.73
2023-01-12T17:44:31.632Z,1.63
2023-01-12T17:46:59.614Z,1.20
2023-01-12T17:49:28.187Z,1.60
2023-01-12T17:51:57.723Z,2.00
2023-01-12T17:54:25.961Z,1.52
2023-01-12T17:56:57.511Z,1.70
2023-01-12T17:59:25.851Z,1.73
2023-01-12T18:01:55.393Z,1.50
2023-01-12T18:04:23.491Z,1.30
2023-01-12T18:06:51.504Z,1.40
2023-01-12T18:09:20.935Z,1.50
2023-01-12T18:11:48.888Z,1.30
2023-01-12T18:14:16.916Z,1.30
2023-01-12T18:16:44.853Z,1.27
2023-01-12T18:19:14.959Z,1.17
2023-01-12T18:21:43.935Z,1.30
2023-01-12T18:24:11.934Z,1.35
2023-01-12T18:26:41.454Z,1.30
2023-01-12T18:29:09.461Z,1.50
2023-01-12T18:31:38.395Z,1.10
2023-01-12T18:34:07.750Z,1.10
2023-01-12T18:36:37.887Z,1.17
2023-01-12T18:39:07.262Z,1.10
2023-01-12T18:41:55.868Z,1.23
2023-01-12T18:44:26.929Z,1.23
2023-01-12T18:47:12.032Z,1.30
2023-01-12T18:49:40.609Z,1.17
2023-01-12T18:52:29.410Z,1.33
2023-01-12T18:54:58.777Z,1.25
2023-01-12T18:57:28.840Z,1.00
2023-01-12T19:00:09.853Z,1.50
2023-01-12T19:02:37.865Z,1.27
2023-01-12T19:05:25.919Z,1.40
2023-01-12T19:08:26.288Z,1.20
2023-01-12T19:10:53.524Z,1.40
2023-01-12T19:13:38.510Z,1.35
2023-01-12T19:16:26.016Z,1.35
2023-01-12T19:18:54.325Z,1.08
2023-01-12T19:21:51.111Z,1.30
2023-01-12T19:24:37.114Z,1.10
2023-01-12T19:27:22.707Z,1.20
2023-01-12T19:29:50.917Z,0.90
2023-01-12T19:32:20.317Z,1.30
2023-01-12T19:34:50.561Z,1.17
2023-01-12T19:37:24.600Z,1.45
2023-01-12T19:40:00.867Z,1.35
2023-01-12T19:42:47.711Z,1.40
2023-01-12T19:45:16.206Z,0.95
2023-01-12T19:47:45.543Z,1.35
2023-01-12T19:50:14.666Z,1.20
2023-01-12T19:52:44.018Z,1.17
2023-01-12T19:55:13.712Z,1.55
2023-01-12T19:57:43.088Z,1.23
2023-01-12T20:00:15.173Z,1.23
2023-01-12T20:02:45.418Z,1.17
2023-01-12T20:05:17.310Z,1.10
2023-01-12T20:07:45.500Z,1.00
2023-01-12T20:10:13.579Z,1.15
2023-01-12T20:12:41.574Z,1.05
2023-01-12T20:15:10.574Z,1.17
2023-01-12T20:17:39.097Z,1.10
2023-01-12T20:20:13.248Z,1.00
2023-01-12T20:22:41.461Z,1.00
2023-01-12T20:25:10.187Z,1.08
2023-01-12T20:27:39.333Z,1.20
2023-01-12T20:30:10.704Z,1.10
2023-01-12T20:32:42.638Z,1.00
2023-01-12T20:35:14.848Z,0.95
2023-01-12T20:40:12.614Z,1.15
2023-01-12T20:42:41.291Z,1.20
2023-01-12T20:45:13.564Z,1.20
2023-01-12T20:47:47.599Z,0.80
2023-01-12T20:50:18.902Z,1.05
2023-01-12T20:52:47.991Z,0.93
2023-01-12T20:55:16.343Z,1.00
2023-01-12T20:57:44.270Z,1.05
2023-01-12T21:00:14.475Z,0.77
2023-01-12T21:02:42.726Z,1.30
2023-01-12T21:05:10.925Z,1.15
2023-01-12T21:07:40.532Z,0.98
2023-01-12T21:10:12.504Z,1.10
2023-01-12T21:12:40.620Z,0.93
2023-01-12T21:15:09.332Z,1.13
2023-01-12T21:17:39.351Z,0.80
2023-01-12T21:20:08.477Z,0.77
2023-01-12T21:22:36.529Z,0.88
2023-01-12T21:25:06.551Z,0.90
2023-01-12T21:27:35.256Z,0.82
2023-01-12T21:30:03.373Z,1.08
2023-01-12T21:32:31.374Z,0.90
2023-01-12T21:34:59.401Z,1.13
2023-01-12T21:37:27.360Z,0.93
2023-01-12T21:39:55.345Z,0.98
2023-01-12T21:42:42.378Z,1.10
2023-01-12T21:45:11.200Z,0.88
2023-01-12T21:47:42.165Z,1.00
2023-01-12T21:50:11.532Z,0.95
2023-01-12T21:52:41.551Z,1.00
2023-01-12T21:55:11.312Z,0.70
2023-01-12T21:57:41.613Z,1.00
2023-01-12T22:00:11.529Z,0.70
2023-01-12T22:02:45.408Z,1.17
2023-01-12T22:05:14.007Z,0.82
2023-01-12T22:07:42.066Z,0.90
2023-01-12T22:10:20.271Z,0.93
2023-01-12T22:12:51.545Z,0.80
2023-01-12T22:15:19.949Z,0.80
2023-01-12T22:17:48.349Z,0.60
2023-01-12T22:20:17.290Z,1.05
2023-01-12T22:22:46.017Z,0.90
2023-01-12T22:25:16.333Z,1.00
2023-01-12T22:27:44.948Z,0.70
2023-01-12T22:30:18.132Z,1.00
2023-01-12T22:32:46.496Z,1.02
2023-01-12T22:35:15.129Z,0.80
2023-01-12T22:37:43.099Z,1.17
2023-01-12T22:40:13.427Z,0.80
2023-01-12T22:42:58.912Z,0.93
2023-01-12T22:45:28.338Z,1.00
2023-01-12T22:47:57.600Z,0.85
2023-01-12T22:50:26.151Z,1.30
2023-01-12T22:52:54.852Z,1.02
2023-01-12T22:55:24.449Z,1.23
2023-01-12T22:57:53.187Z,1.05
2023-01-12T23:00:22.267Z,1.25
2023-01-12T23:03:01.232Z,0.95
2023-01-12T23:05:32.027Z,1.00
2023-01-12T23:08:00.065Z,1.00
2023-01-12T23:10:28.450Z,1.00
2023-01-12T23:13:15.721Z,0.90
2023-01-12T23:15:46.681Z,1.42
2023-01-12T23:18:17.622Z,1.30
2023-01-12T23:20:46.536Z,0.90
2023-01-12T23:23:17.521Z,0.82
2023-01-12T23:25:46.717Z,1.10
2023-01-12T23:28:15.434Z,1.27
2023-01-12T23:30:43.703Z,1.10
2023-01-12T23:33:11.627Z,1.23
2023-01-12T23:35:42.593Z,1.40
2023-01-12T23:38:16.241Z,1.17
2023-01-12T23:40:44.584Z,0.90
2023-01-12T23:43:12.610Z,1.25
2023-01-12T23:45:40.599Z,1.45
2023-01-12T23:48:08.933Z,1.30
2023-01-12T23:50:36.987Z,1.20
2023-01-12T23:53:06.347Z,1.38
2023-01-12T23:55:34.338Z,1.10
2023-01-12T23:58:02.551Z,1.23
